Anguilla, Mississippi
Current Conditions -  °F | °C
As of 6:53 PM on Monday 24 Nov 2014 (Local Time) from KGLH Reporting Station
Clear Clear  
Wind Chill: 50°   Ceiling: Unl
Heat Index: 50°   Visibility: 8mi
Dew Point: 35°   Wind: 3mph
Humidity: 57%   Direction: 250°WSW
Pressure: 30.03"   Gusts: NA
Location:  32.97°N, 90.82°W
Report Text: KGLH 250053Z AUTO 25003KT 8SM CLR 10/02 A3003 RMK AO2 SLP178 T01000017
Loading
Personal Weather Stations






























Interactive Weather Map New forecast layout! Learn more

10-Day Weather Forecast

Advertisements
Track Severe Weather on mobile